Brunswick, NE (68720)

10:37 PM CST on December 08, 2016 (GMT -0600)
Neligh | | Change Station

Elev 1798 ft 42.13 °N, 98.03 °W | Updated 42 seconds ago

Clear
Clear
7.7 °F
Feels Like 8 °F
N
0.0
Wind Variable Wind from North
Gusts 0.0 mph

Today
High -- | Low -- °F
--% Chance of Precip.
Yesterday
High -- | Low -- °F
Precip. -- in
Pressure 30.72 in
Visibility 10.0 miles
Clouds Clear
Windchill 8 °F
Dew Point 1 °F
Humidity 75%
Rainfall 0.00 in
Snow Depth Not available.
7:48 AM 4:59 PM
Waxing Gibbous, 70% visible
METAR KOFK 090356Z AUTO 31005KT 10SM CLR M14/M18 A3061 RMK AO2 SLP401 T11391178
Pressure 30.72 in
Visibility 10.0 miles
Clouds Clear
Windchill 8 °F
Dew Point 1 °F
Humidity 75%
Rainfall 0.00 in
Snow Depth Not available.
7:48 AM 4:59 PM
Waxing Gibbous, 70% visible
METAR KOFK 090356Z AUTO 31005KT 10SM CLR M14/M18 A3061 RMK AO2 SLP401 T11391178

10-Day Weather Forecast

Almanac

Astronomy

Dec. 08, 2016 Rise Set
Actual Time
Civil Twilight
Nautical Twilight
Astronomical Twilight
Moon
Length of Visible Light
Length of Day
Tomorrow will be .
, % of the Moon is Illuminated

Today's Extremes

State Highs State Lows

Community

WunderPhotos

Upload Photos

1,956,370 photos uploaded!

WunderBlog® & News

Nearby

Air Quality

  Air Quality AQ Index Pollutant
Not available.

Snow Depth

Station Depth Elevation

Earthquake Activity

City Distance Mag. Time & Date
Minimum magnitude displayed is 2.5.

Coastal Water Temperatures

Place Temperature

Stations

Nearby Weather Stations

Station Location Temp. Windchill Dew Point Humidity Wind Precip. Elev Updated Type
                   

Watches & Warnings

There are currently no watches in effect.